createdAt,value
2023-05-30T00:01:15.497Z,59.80
2023-05-30T00:03:46.072Z,59.80
2023-05-30T00:06:14.764Z,59.85
2023-05-30T00:08:42.730Z,60.02
2023-05-30T00:11:12.289Z,59.71
2023-05-30T00:13:39.376Z,59.43
2023-05-30T00:16:06.480Z,59.54
2023-05-30T00:18:36.155Z,59.52
2023-05-30T00:21:05.244Z,59.94
2023-05-30T00:23:33.309Z,59.64
2023-05-30T00:26:00.941Z,59.29
2023-05-30T00:28:28.100Z,59.02
2023-05-30T00:30:58.775Z,59.17
2023-05-30T00:33:26.448Z,59.06
2023-05-30T00:35:53.549Z,58.86
2023-05-30T00:38:20.577Z,59.19
2023-05-30T00:40:47.956Z,58.99
2023-05-30T00:43:17.068Z,58.91
2023-05-30T00:45:44.315Z,58.72
2023-05-30T00:48:12.099Z,58.86
2023-05-30T00:50:40.558Z,58.66
2023-05-30T00:53:08.400Z,58.64
2023-05-30T00:55:36.238Z,58.90
2023-05-30T00:58:03.595Z,58.49
2023-05-30T01:00:31.609Z,58.21
2023-05-30T01:03:02.028Z,58.41
2023-05-30T01:05:31.398Z,57.77
2023-05-30T01:07:58.720Z,58.25
2023-05-30T01:10:26.210Z,57.99
2023-05-30T01:13:19.611Z,58.07
2023-05-30T01:16:22.817Z,57.80
2023-05-30T01:19:10.080Z,57.91
2023-05-30T01:21:39.174Z,57.96
2023-05-30T01:24:10.097Z,58.30
2023-05-30T01:27:11.095Z,58.40
2023-05-30T01:29:40.401Z,58.77
2023-05-30T01:32:09.587Z,58.53
2023-05-30T01:34:37.232Z,58.63
2023-05-30T01:37:04.571Z,58.86
2023-05-30T01:39:32.497Z,58.65
2023-05-30T01:42:16.347Z,59.22
2023-05-30T01:45:15.088Z,59.60
2023-05-30T01:47:53.082Z,59.40
2023-05-30T01:50:30.941Z,59.20
2023-05-30T01:53:01.168Z,59.39
2023-05-30T01:55:31.892Z,59.20
2023-05-30T01:58:01.201Z,59.21
2023-05-30T02:03:55.280Z,58.89
2023-05-30T02:06:27.445Z,59.54
2023-05-30T02:08:54.850Z,59.15
2023-05-30T02:11:22.154Z,59.42
2023-05-30T02:13:52.179Z,58.80
2023-05-30T02:16:21.324Z,59.72
2023-05-30T02:18:53.999Z,59.27
2023-05-30T02:21:28.180Z,58.94
2023-05-30T02:23:58.932Z,59.25
2023-05-30T02:26:30.557Z,59.41
2023-05-30T02:28:58.560Z,58.74
2023-05-30T02:31:31.214Z,58.78
2023-05-30T02:34:05.651Z,58.54
2023-05-30T02:36:34.154Z,58.56
2023-05-30T02:39:16.528Z,58.32
2023-05-30T02:41:54.760Z,58.04
2023-05-30T02:44:31.855Z,58.04
2023-05-30T02:47:06.086Z,57.89
2023-05-30T02:49:38.698Z,58.37
2023-05-30T02:52:06.272Z,57.73
2023-05-30T02:54:53.079Z,57.77
2023-05-30T02:57:41.944Z,57.84
2023-05-30T03:00:17.364Z,57.50
2023-05-30T03:02:57.723Z,57.57
2023-05-30T03:05:30.112Z,57.22
2023-05-30T03:08:01.983Z,57.20
2023-05-30T03:10:35.915Z,57.23
2023-05-30T03:13:05.619Z,57.18
2023-05-30T03:15:32.987Z,57.26
2023-05-30T03:18:06.939Z,57.01
2023-05-30T03:20:36.209Z,56.77
2023-05-30T03:23:04.134Z,57.14
2023-05-30T03:25:32.227Z,56.99
2023-05-30T03:28:09.434Z,56.85
2023-05-30T03:31:06.620Z,56.82
2023-05-30T03:33:42.404Z,56.57
2023-05-30T03:36:20.532Z,56.40
2023-05-30T03:38:51.209Z,56.23
2023-05-30T03:41:22.497Z,55.89
2023-05-30T03:43:53.485Z,56.02
2023-05-30T03:46:26.397Z,56.13
2023-05-30T03:48:53.762Z,56.12
2023-05-30T03:51:23.687Z,55.82
2023-05-30T03:53:51.939Z,56.05
2023-05-30T03:56:23.775Z,55.80
2023-05-30T03:58:54.458Z,56.07
2023-05-30T04:01:24.937Z,55.91
2023-05-30T04:03:54.522Z,55.83
2023-05-30T04:06:23.230Z,55.58
2023-05-30T04:08:50.445Z,55.22
2023-05-30T04:11:17.827Z,55.27
2023-05-30T04:13:45.082Z,54.73
2023-05-30T04:16:12.487Z,54.35
2023-05-30T04:18:45.211Z,54.66
2023-05-30T04:21:15.749Z,54.17
2023-05-30T04:23:44.569Z,54.43
2023-05-30T04:26:11.992Z,54.35
2023-05-30T04:28:39.989Z,54.38
2023-05-30T04:31:20.420Z,54.39
2023-05-30T04:33:54.120Z,54.27
2023-05-30T04:36:22.663Z,53.85
2023-05-30T04:38:53.222Z,54.27
2023-05-30T04:41:22.785Z,54.92
2023-05-30T04:43:59.240Z,54.67
2023-05-30T04:46:33.150Z,55.68
2023-05-30T04:49:22.388Z,54.97
2023-05-30T04:51:59.390Z,54.69
2023-05-30T04:54:41.189Z,54.37
2023-05-30T04:57:13.954Z,54.17
2023-05-30T04:59:59.045Z,54.18
2023-05-30T05:02:54.179Z,53.76
2023-05-30T05:05:40.008Z,53.24
2023-05-30T05:08:38.779Z,53.41
2023-05-30T05:11:30.961Z,52.93
2023-05-30T05:14:10.571Z,53.12
2023-05-30T05:16:45.715Z,52.63
2023-05-30T05:19:27.725Z,52.77
2023-05-30T05:22:05.617Z,52.62
2023-05-30T05:24:38.068Z,52.88
2023-05-30T05:27:08.609Z,52.79
2023-05-30T05:29:47.780Z,52.52
2023-05-30T05:32:37.813Z,53.21
2023-05-30T05:35:16.367Z,52.95
2023-05-30T05:37:57.131Z,53.40
2023-05-30T05:40:37.884Z,52.70
2023-05-30T05:43:24.784Z,52.52
2023-05-30T05:46:02.751Z,52.52
2023-05-30T05:48:41.468Z,52.24
2023-05-30T05:51:20.880Z,52.08
2023-05-30T05:54:02.384Z,52.02
2023-05-30T05:56:38.140Z,51.65
2023-05-30T05:59:16.609Z,51.19
2023-05-30T06:02:03.273Z,51.13
2023-05-30T06:04:51.285Z,51.02
2023-05-30T06:07:26.849Z,50.91
2023-05-30T06:10:10.974Z,51.26
2023-05-30T06:12:48.502Z,50.70
2023-05-30T06:15:19.837Z,50.75
2023-05-30T06:17:49.558Z,50.26
2023-05-30T06:20:22.152Z,50.66
2023-05-30T06:23:00.122Z,50.36
2023-05-30T06:25:38.771Z,49.97
2023-05-30T06:28:16.326Z,50.43
2023-05-30T06:30:57.167Z,50.44
2023-05-30T06:33:38.042Z,49.99
2023-05-30T06:36:26.097Z,49.42
2023-05-30T06:39:02.285Z,49.60
2023-05-30T06:41:41.817Z,49.35
2023-05-30T06:44:21.524Z,48.87
2023-05-30T06:46:58.231Z,49.06
2023-05-30T06:49:31.552Z,49.07
2023-05-30T06:52:08.002Z,48.40
2023-05-30T06:54:44.415Z,48.87
2023-05-30T06:57:21.055Z,48.20
2023-05-30T06:59:51.531Z,48.52
2023-05-30T07:02:35.244Z,47.95
2023-05-30T07:05:10.009Z,48.01
2023-05-30T07:07:43.536Z,48.02
2023-05-30T07:10:17.186Z,47.97
2023-05-30T07:12:48.761Z,47.40
2023-05-30T07:15:29.468Z,47.26
2023-05-30T07:18:16.614Z,47.38
2023-05-30T07:21:18.220Z,47.22
2023-05-30T07:23:53.280Z,47.22
2023-05-30T07:26:30.669Z,46.60
2023-05-30T07:28:58.548Z,47.41
2023-05-30T07:31:28.978Z,46.84
2023-05-30T07:33:59.003Z,46.50
2023-05-30T07:36:45.368Z,44.74
2023-05-30T07:39:18.516Z,45.41
2023-05-30T07:41:52.435Z,44.74
2023-05-30T07:44:25.476Z,44.69
2023-05-30T07:47:04.297Z,44.47
2023-05-30T07:49:51.204Z,44.02
2023-05-30T07:52:26.829Z,43.96
2023-05-30T07:54:56.662Z,43.20
2023-05-30T07:57:34.011Z,43.44
2023-05-30T08:00:09.952Z,43.02
2023-05-30T08:02:44.872Z,42.88
2023-05-30T08:05:19.561Z,40.27
2023-05-30T08:07:52.489Z,40.32
2023-05-30T08:10:22.868Z,40.16
2023-05-30T08:13:06.412Z,39.26
2023-05-30T08:18:35.638Z,38.64
2023-05-30T08:21:09.208Z,40.10
2023-05-30T08:26:26.031Z,39.98
2023-05-30T08:29:02.394Z,39.28
2023-05-30T08:31:43.990Z,39.88
2023-05-30T08:34:19.778Z,39.58
2023-05-30T08:37:00.877Z,39.82
2023-05-30T08:39:37.068Z,39.85
2023-05-30T08:42:06.129Z,40.25
2023-05-30T08:44:49.750Z,40.21
2023-05-30T08:47:27.807Z,41.75
2023-05-30T08:50:03.831Z,41.36
2023-05-30T08:52:35.972Z,40.50
2023-05-30T08:55:12.505Z,41.96
2023-05-30T08:58:01.870Z,41.55
2023-05-30T09:00:33.432Z,42.19
2023-05-30T09:03:02.042Z,41.81
2023-05-30T09:05:39.103Z,41.96
2023-05-30T09:08:14.352Z,42.33
2023-05-30T09:10:49.626Z,42.57
2023-05-30T09:13:17.348Z,42.89
2023-05-30T09:15:52.946Z,42.96
2023-05-30T09:18:23.479Z,41.94
2023-05-30T09:20:52.381Z,41.19
2023-05-30T09:23:23.269Z,40.39
2023-05-30T09:25:55.832Z,40.76
2023-05-30T09:28:32.572Z,40.82
2023-05-30T09:31:08.187Z,39.96
2023-05-30T09:34:05.420Z,39.30
2023-05-30T09:36:33.786Z,40.20
2023-05-30T09:39:07.190Z,40.26
2023-05-30T09:41:36.176Z,40.21
2023-05-30T09:44:14.313Z,39.46
2023-05-30T09:46:41.911Z,38.65
2023-05-30T09:49:19.957Z,38.01
2023-05-30T09:51:54.586Z,38.04
2023-05-30T09:54:21.818Z,38.25
2023-05-30T09:56:55.032Z,38.22
2023-05-30T09:59:24.671Z,38.34
2023-05-30T10:01:52.656Z,38.71
2023-05-30T10:04:27.137Z,38.01
2023-05-30T10:06:57.824Z,37.93
2023-05-30T10:09:30.428Z,38.17
2023-05-30T10:12:10.191Z,37.50
2023-05-30T10:14:38.250Z,37.61
2023-05-30T10:17:09.593Z,38.24
2023-05-30T10:19:49.233Z,38.14
2023-05-30T10:22:25.880Z,37.64
2023-05-30T10:25:06.221Z,37.01
2023-05-30T10:27:50.587Z,37.14
2023-05-30T10:30:34.468Z,36.10
2023-05-30T10:33:14.817Z,35.36
2023-05-30T10:35:51.987Z,34.83
2023-05-30T10:38:26.131Z,34.06
2023-05-30T10:41:18.114Z,33.87
2023-05-30T10:44:03.214Z,34.33
2023-05-30T10:46:53.771Z,34.34
2023-05-30T10:49:32.744Z,35.18
2023-05-30T10:52:25.226Z,35.85
2023-05-30T10:54:55.696Z,35.82
2023-05-30T10:57:30.023Z,36.86
2023-05-30T11:00:19.655Z,37.50
2023-05-30T11:03:07.899Z,38.65
2023-05-30T11:05:38.653Z,38.25
2023-05-30T11:08:09.725Z,37.60
2023-05-30T11:10:46.432Z,37.86
2023-05-30T11:13:16.754Z,38.30
2023-05-30T11:15:55.172Z,37.92
2023-05-30T11:18:46.810Z,37.47
2023-05-30T11:21:41.184Z,35.63
2023-05-30T11:24:23.341Z,33.79
2023-05-30T11:27:16.538Z,34.05
2023-05-30T11:29:59.331Z,34.83
2023-05-30T11:32:51.298Z,35.66
2023-05-30T11:35:19.078Z,35.50
2023-05-30T11:37:49.749Z,35.04
2023-05-30T11:40:18.407Z,33.91
2023-05-30T11:42:46.747Z,34.21
2023-05-30T11:45:20.836Z,34.72
2023-05-30T11:47:51.431Z,34.48
2023-05-30T11:50:22.133Z,35.58
2023-05-30T11:52:52.486Z,35.61
2023-05-30T11:55:24.384Z,36.79
2023-05-30T11:57:52.223Z,37.65
2023-05-30T12:00:25.142Z,37.50
2023-05-30T12:02:55.430Z,38.08
2023-05-30T12:05:35.248Z,40.12
2023-05-30T12:08:13.618Z,39.55
2023-05-30T12:10:58.320Z,39.31
2023-05-30T12:13:30.931Z,41.08
2023-05-30T12:16:04.502Z,40.85
2023-05-30T12:18:42.028Z,43.46
2023-05-30T12:21:21.417Z,42.15
2023-05-30T12:23:52.837Z,43.00
2023-05-30T12:26:31.114Z,43.41
2023-05-30T12:29:07.621Z,42.65
2023-05-30T12:31:43.519Z,41.97
2023-05-30T12:34:11.345Z,42.58
2023-05-30T12:36:39.650Z,42.33
2023-05-30T12:39:10.536Z,40.23
2023-05-30T12:41:44.591Z,40.83
2023-05-30T12:44:21.246Z,39.81
2023-05-30T12:47:02.579Z,38.53
2023-05-30T12:49:29.974Z,39.48
2023-05-30T12:51:57.395Z,40.17
2023-05-30T12:54:27.891Z,40.24
2023-05-30T12:56:57.914Z,40.25
2023-05-30T12:59:28.819Z,40.82
2023-05-30T13:01:57.427Z,41.47
2023-05-30T13:04:25.097Z,42.22
2023-05-30T13:06:57.057Z,41.94
2023-05-30T13:09:24.636Z,40.14
2023-05-30T13:11:58.967Z,39.34
2023-05-30T13:14:36.587Z,40.14
2023-05-30T13:17:05.140Z,41.08
2023-05-30T13:19:35.057Z,40.96
2023-05-30T13:22:07.719Z,40.28
2023-05-30T13:24:37.983Z,40.20
2023-05-30T13:27:05.903Z,40.31
2023-05-30T13:29:33.597Z,40.65
2023-05-30T13:32:01.148Z,41.38
2023-05-30T13:34:34.668Z,41.29
2023-05-30T13:37:08.726Z,41.57
2023-05-30T13:39:39.470Z,40.78
2023-05-30T13:42:09.973Z,40.63
2023-05-30T13:44:40.409Z,41.14
2023-05-30T13:47:09.541Z,39.92
2023-05-30T13:49:38.538Z,41.50
2023-05-30T13:52:12.204Z,40.62
2023-05-30T13:54:41.754Z,40.93
2023-05-30T13:57:11.626Z,41.04
2023-05-30T13:59:43.199Z,41.58
2023-05-30T14:02:20.644Z,41.53
2023-05-30T14:04:51.477Z,42.67
2023-05-30T14:07:26.144Z,44.11
2023-05-30T14:09:53.858Z,43.55
2023-05-30T14:12:21.610Z,43.93
2023-05-30T14:14:49.322Z,43.97
2023-05-30T14:17:17.062Z,44.07
2023-05-30T14:19:48.152Z,43.18
2023-05-30T14:22:17.961Z,44.17
2023-05-30T14:24:45.357Z,43.68
2023-05-30T14:27:14.074Z,43.28
2023-05-30T14:29:42.749Z,42.51
2023-05-30T14:32:12.907Z,42.67
2023-05-30T14:34:40.907Z,42.14
2023-05-30T14:37:09.400Z,42.56
2023-05-30T14:39:37.401Z,41.10
2023-05-30T14:42:08.024Z,41.99
2023-05-30T14:44:37.252Z,42.56
2023-05-30T14:47:06.898Z,43.04
2023-05-30T14:49:37.906Z,42.75
2023-05-30T14:52:07.683Z,42.65
2023-05-30T14:54:37.207Z,41.72
2023-05-30T14:57:05.060Z,42.69
2023-05-30T14:59:32.448Z,42.67
2023-05-30T15:01:59.933Z,42.30
2023-05-30T15:04:28.151Z,40.93
2023-05-30T15:06:55.710Z,41.47
2023-05-30T15:09:22.929Z,41.87
2023-05-30T15:12:13.812Z,41.30
2023-05-30T15:14:43.312Z,41.68
2023-05-30T15:17:13.944Z,41.60
2023-05-30T15:19:44.426Z,41.25
2023-05-30T15:22:43.837Z,41.25
2023-05-30T15:25:19.979Z,40.45
2023-05-30T15:27:54.807Z,40.87
2023-05-30T15:30:35.137Z,41.83
2023-05-30T15:33:10.454Z,41.45
2023-05-30T15:35:47.260Z,40.85
2023-05-30T15:38:18.458Z,42.12
2023-05-30T15:40:56.631Z,41.70
2023-05-30T15:43:29.457Z,41.70
2023-05-30T15:46:29.487Z,40.94
2023-05-30T15:51:43.486Z,39.98
2023-05-30T15:54:11.443Z,39.77
2023-05-30T15:56:45.083Z,39.01
2023-05-30T15:59:23.921Z,39.53
2023-05-30T16:01:51.440Z,40.74
2023-05-30T16:04:18.660Z,41.47
2023-05-30T16:06:49.757Z,40.90
2023-05-30T16:09:18.562Z,40.73
2023-05-30T16:11:48.694Z,41.51
2023-05-30T16:14:24.968Z,41.02
2023-05-30T16:16:52.832Z,40.82
2023-05-30T16:19:26.499Z,40.44
2023-05-30T16:21:54.552Z,40.07
2023-05-30T16:24:25.657Z,40.53
2023-05-30T16:26:55.432Z,40.44
2023-05-30T16:29:27.830Z,40.33
2023-05-30T16:31:55.031Z,41.17
2023-05-30T16:34:22.243Z,40.89
2023-05-30T16:36:49.452Z,41.65
2023-05-30T16:39:20.655Z,40.89
2023-05-30T16:41:48.713Z,40.49
2023-05-30T16:44:15.951Z,41.52
2023-05-30T16:46:43.488Z,41.63
2023-05-30T16:49:16.210Z,41.64
2023-05-30T16:52:03.901Z,41.44
2023-05-30T16:54:37.424Z,41.13
2023-05-30T16:57:07.760Z,41.02
2023-05-30T16:59:43.080Z,41.48
2023-05-30T17:02:17.624Z,41.93
2023-05-30T17:05:24.768Z,41.91
2023-05-30T17:08:03.543Z,41.31
2023-05-30T17:10:33.920Z,41.00
2023-05-30T17:13:10.724Z,40.38
2023-05-30T17:18:30.533Z,41.26
2023-05-30T17:21:17.234Z,40.37
2023-05-30T17:24:12.964Z,40.96
2023-05-30T17:26:44.892Z,43.30
2023-05-30T17:29:28.424Z,44.52
2023-05-30T17:32:01.103Z,44.60
2023-05-30T17:34:41.845Z,45.38
2023-05-30T17:37:27.651Z,45.14
2023-05-30T17:40:03.850Z,45.34
2023-05-30T17:42:50.906Z,45.22
2023-05-30T17:46:10.772Z,45.50
2023-05-30T17:49:01.867Z,45.93
2023-05-30T17:51:41.875Z,45.37
2023-05-30T17:54:22.539Z,45.90
2023-05-30T17:56:57.875Z,46.84
2023-05-30T17:59:30.405Z,46.24
2023-05-30T18:02:07.877Z,46.71
2023-05-30T18:04:42.741Z,46.05
2023-05-30T18:07:28.227Z,46.07
2023-05-30T18:10:06.828Z,46.44
2023-05-30T18:12:43.347Z,46.11
2023-05-30T18:15:17.788Z,45.78
2023-05-30T18:17:53.909Z,45.85
2023-05-30T18:20:48.527Z,45.81
2023-05-30T18:23:41.801Z,45.11
2023-05-30T18:26:23.141Z,45.36
2023-05-30T18:29:09.239Z,45.43
2023-05-30T18:31:46.672Z,45.17
2023-05-30T18:34:23.289Z,45.00
2023-05-30T18:37:16.114Z,44.98
2023-05-30T18:39:56.205Z,45.56
2023-05-30T18:42:59.340Z,45.71
2023-05-30T18:45:50.993Z,45.75
2023-05-30T18:51:19.696Z,45.51
2023-05-30T18:53:52.083Z,45.67
2023-05-30T18:56:58.920Z,45.25
2023-05-30T18:59:38.078Z,45.36
2023-05-30T19:02:25.671Z,45.42
2023-05-30T19:04:56.633Z,45.44
2023-05-30T19:07:37.792Z,44.79
2023-05-30T19:10:19.700Z,44.45
2023-05-30T19:13:06.317Z,44.16
2023-05-30T19:15:40.395Z,44.55
2023-05-30T19:18:23.153Z,44.13
2023-05-30T19:20:53.265Z,43.86
2023-05-30T19:23:37.756Z,43.08
2023-05-30T19:26:20.338Z,42.55
2023-05-30T19:28:55.837Z,43.07
2023-05-30T19:31:31.952Z,42.16
2023-05-30T19:34:24.334Z,42.39
2023-05-30T19:37:12.229Z,41.90
2023-05-30T19:40:00.679Z,42.85
2023-05-30T19:42:54.146Z,43.04
2023-05-30T19:45:46.903Z,43.09
2023-05-30T19:48:37.384Z,42.17
2023-05-30T19:51:30.473Z,42.19
2023-05-30T19:54:05.810Z,41.90
2023-05-30T19:56:33.265Z,41.95
2023-05-30T19:59:20.915Z,41.61
2023-05-30T20:02:08.385Z,41.75
2023-05-30T20:04:38.415Z,41.08
2023-05-30T20:07:08.421Z,40.95
2023-05-30T20:09:51.992Z,40.14
2023-05-30T20:12:44.959Z,40.21
2023-05-30T20:15:14.553Z,39.79
2023-05-30T20:17:59.352Z,39.70
2023-05-30T20:20:49.807Z,39.09
2023-05-30T20:23:35.128Z,39.74
2023-05-30T20:26:30.414Z,39.16
2023-05-30T20:29:01.112Z,39.19
2023-05-30T20:31:35.855Z,39.11
2023-05-30T20:34:23.675Z,39.28
2023-05-30T20:37:01.421Z,39.11
2023-05-30T20:39:45.988Z,39.25
2023-05-30T20:42:26.447Z,39.62
2023-05-30T20:45:04.558Z,39.32
2023-05-30T20:47:51.420Z,39.61
2023-05-30T20:50:20.767Z,39.33
2023-05-30T20:52:48.312Z,39.64
2023-05-30T20:55:27.282Z,39.61
2023-05-30T20:58:17.366Z,40.12
2023-05-30T21:01:12.315Z,40.43
2023-05-30T21:04:03.044Z,40.78
2023-05-30T21:06:40.789Z,41.21
2023-05-30T21:09:17.321Z,41.54
2023-05-30T21:12:00.170Z,41.51
2023-05-30T21:14:42.256Z,41.55
2023-05-30T21:17:16.854Z,41.73
2023-05-30T21:19:44.139Z,41.82
2023-05-30T21:22:11.721Z,42.50
2023-05-30T21:24:52.594Z,43.16
2023-05-30T21:27:22.316Z,43.68
2023-05-30T21:29:49.475Z,44.23
2023-05-30T21:32:16.683Z,44.23
2023-05-30T21:34:43.891Z,44.39
2023-05-30T21:37:11.551Z,44.87
2023-05-30T21:39:38.730Z,45.35
2023-05-30T21:42:06.661Z,45.58
2023-05-30T21:44:33.911Z,46.13
2023-05-30T21:47:01.113Z,45.67
2023-05-30T21:49:31.250Z,45.67
2023-05-30T21:51:58.803Z,45.96
2023-05-30T21:54:40.041Z,46.31
2023-05-30T21:57:11.149Z,45.82
2023-05-30T21:59:39.517Z,45.77
2023-05-30T22:02:07.996Z,45.92
2023-05-30T22:04:36.067Z,45.52
2023-05-30T22:07:10.608Z,45.40
2023-05-30T22:09:37.901Z,45.08
2023-05-30T22:12:09.846Z,45.13
2023-05-30T22:14:39.855Z,43.92
2023-05-30T22:17:07.394Z,43.78
2023-05-30T22:19:34.500Z,43.73
2023-05-30T22:22:04.195Z,43.35
2023-05-30T22:24:41.746Z,43.22
2023-05-30T22:27:11.009Z,43.30
2023-05-30T22:29:38.129Z,43.55
2023-05-30T22:32:05.886Z,43.14
2023-05-30T22:34:35.362Z,43.35
2023-05-30T22:37:02.459Z,43.65
2023-05-30T22:39:30.953Z,43.27
2023-05-30T22:41:58.234Z,43.17
2023-05-30T22:44:25.367Z,43.57
2023-05-30T22:46:54.206Z,43.17
2023-05-30T22:49:21.589Z,43.33
2023-05-30T22:51:48.697Z,43.42
2023-05-30T22:54:19.240Z,43.50
2023-05-30T22:56:46.735Z,43.26
2023-05-30T22:59:14.113Z,43.73
2023-05-30T23:01:41.498Z,43.69
2023-05-30T23:04:08.677Z,43.86
2023-05-30T23:06:36.664Z,43.30
2023-05-30T23:09:04.753Z,43.56
2023-05-30T23:11:31.952Z,43.18
2023-05-30T23:13:59.197Z,43.92
2023-05-30T23:16:26.914Z,43.59
2023-05-30T23:18:53.983Z,43.33
2023-05-30T23:21:21.133Z,43.39
2023-05-30T23:23:49.569Z,43.87
2023-05-30T23:26:16.791Z,43.70
2023-05-30T23:28:43.899Z,43.38
2023-05-30T23:31:12.852Z,43.90
2023-05-30T23:33:40.016Z,43.77
2023-05-30T23:36:07.500Z,44.04
2023-05-30T23:38:34.655Z,44.32
2023-05-30T23:41:02.155Z,43.85
2023-05-30T23:43:29.674Z,44.15
2023-05-30T23:45:57.322Z,43.88
2023-05-30T23:48:24.574Z,43.92
2023-05-30T23:50:53.788Z,43.65
2023-05-30T23:53:20.828Z,44.08
2023-05-30T23:55:48.145Z,44.12
2023-05-30T23:58:15.333Z,43.95
